sensor_id;sensor_type;location;lat;lon;timestamp;P1;durP1;ratioP1;P2;durP2;ratioP2
73168;SDS011;61379;59.732;30.468;2023-04-24T00:01:37;9.98;;;8.15;;
73168;SDS011;61379;59.732;30.468;2023-04-24T00:04:04;12.18;;;8.40;;
73168;SDS011;61379;59.732;30.468;2023-04-24T00:06:32;10.15;;;8.32;;
73168;SDS011;61379;59.732;30.468;2023-04-24T00:08:59;9.77;;;8.23;;
73168;SDS011;61379;59.732;30.468;2023-04-24T00:11:27;9.27;;;8.40;;
73168;SDS011;61379;59.732;30.468;2023-04-24T00:13:54;10.07;;;9.13;;
73168;SDS011;61379;59.732;30.468;2023-04-24T00:16:20;9.60;;;7.93;;
73168;SDS011;61379;59.732;30.468;2023-04-24T00:18:48;10.65;;;8.18;;
73168;SDS011;61379;59.732;30.468;2023-04-24T00:21:17;9.18;;;8.35;;
73168;SDS011;61379;59.732;30.468;2023-04-24T00:23:44;9.00;;;8.00;;
73168;SDS011;61379;59.732;30.468;2023-04-24T00:26:11;9.73;;;8.70;;
73168;SDS011;61379;59.732;30.468;2023-04-24T00:28:38;10.88;;;7.78;;
73168;SDS011;61379;59.732;30.468;2023-04-24T00:31:04;10.68;;;8.90;;
73168;SDS011;61379;59.732;30.468;2023-04-24T00:33:31;9.43;;;8.40;;
73168;SDS011;61379;59.732;30.468;2023-04-24T00:35:59;10.57;;;8.25;;
73168;SDS011;61379;59.732;30.468;2023-04-24T00:38:26;8.88;;;7.97;;
73168;SDS011;61379;59.732;30.468;2023-04-24T00:40:53;10.60;;;9.07;;
73168;SDS011;61379;59.732;30.468;2023-04-24T00:43:20;9.07;;;8.27;;
73168;SDS011;61379;59.732;30.468;2023-04-24T00:45:47;10.10;;;8.98;;
73168;SDS011;61379;59.732;30.468;2023-04-24T00:48:13;10.02;;;8.63;;
73168;SDS011;61379;59.732;30.468;2023-04-24T00:50:41;11.38;;;8.27;;
73168;SDS011;61379;59.732;30.468;2023-04-24T00:53:09;11.98;;;8.70;;
73168;SDS011;61379;59.732;30.468;2023-04-24T00:55:36;15.40;;;9.25;;
73168;SDS011;61379;59.732;30.468;2023-04-24T00:58:03;10.90;;;8.60;;
73168;SDS011;61379;59.732;30.468;2023-04-24T01:00:30;9.43;;;8.23;;
73168;SDS011;61379;59.732;30.468;2023-04-24T01:02:58;9.43;;;7.88;;
73168;SDS011;61379;59.732;30.468;2023-04-24T01:05:25;9.32;;;8.10;;
73168;SDS011;61379;59.732;30.468;2023-04-24T01:07:52;10.43;;;8.35;;
73168;SDS011;61379;59.732;30.468;2023-04-24T01:10:20;11.20;;;8.50;;
73168;SDS011;61379;59.732;30.468;2023-04-24T01:12:47;9.02;;;7.93;;
73168;SDS011;61379;59.732;30.468;2023-04-24T01:15:14;9.85;;;8.23;;
73168;SDS011;61379;59.732;30.468;2023-04-24T01:17:40;11.88;;;9.02;;
73168;SDS011;61379;59.732;30.468;2023-04-24T01:20:07;10.43;;;8.75;;
73168;SDS011;61379;59.732;30.468;2023-04-24T01:22:35;8.77;;;7.97;;
73168;SDS011;61379;59.732;30.468;2023-04-24T01:25:03;10.90;;;7.93;;
73168;SDS011;61379;59.732;30.468;2023-04-24T01:27:31;9.35;;;8.45;;
73168;SDS011;61379;59.732;30.468;2023-04-24T01:29:58;9.02;;;8.07;;
73168;SDS011;61379;59.732;30.468;2023-04-24T01:32:25;9.07;;;8.20;;
73168;SDS011;61379;59.732;30.468;2023-04-24T01:34:52;9.10;;;8.13;;
73168;SDS011;61379;59.732;30.468;2023-04-24T01:37:19;10.40;;;8.52;;
73168;SDS011;61379;59.732;30.468;2023-04-24T01:39:47;10.13;;;8.57;;
73168;SDS011;61379;59.732;30.468;2023-04-24T01:42:14;9.32;;;8.45;;
73168;SDS011;61379;59.732;30.468;2023-04-24T01:44:41;10.65;;;8.77;;
73168;SDS011;61379;59.732;30.468;2023-04-24T01:47:08;10.18;;;9.27;;
73168;SDS011;61379;59.732;30.468;2023-04-24T01:49:34;9.82;;;8.82;;
73168;SDS011;61379;59.732;30.468;2023-04-24T01:52:01;10.85;;;8.23;;
73168;SDS011;61379;59.732;30.468;2023-04-24T01:54:28;11.07;;;9.15;;
73168;SDS011;61379;59.732;30.468;2023-04-24T01:56:56;9.85;;;8.85;;
73168;SDS011;61379;59.732;30.468;2023-04-24T01:59:23;9.85;;;8.82;;
73168;SDS011;61379;59.732;30.468;2023-04-24T02:01:51;9.88;;;8.35;;
73168;SDS011;61379;59.732;30.468;2023-04-24T02:04:18;10.70;;;8.50;;
73168;SDS011;61379;59.732;30.468;2023-04-24T02:06:45;12.90;;;9.32;;
73168;SDS011;61379;59.732;30.468;2023-04-24T02:09:11;11.63;;;10.52;;
73168;SDS011;61379;59.732;30.468;2023-04-24T02:11:38;9.52;;;8.60;;
73168;SDS011;61379;59.732;30.468;2023-04-24T02:14:06;11.93;;;9.63;;
73168;SDS011;61379;59.732;30.468;2023-04-24T02:16:33;11.63;;;9.48;;
73168;SDS011;61379;59.732;30.468;2023-04-24T02:19:01;9.70;;;8.65;;
73168;SDS011;61379;59.732;30.468;2023-04-24T02:21:27;10.20;;;8.80;;
73168;SDS011;61379;59.732;30.468;2023-04-24T02:23:55;9.20;;;8.30;;
73168;SDS011;61379;59.732;30.468;2023-04-24T02:26:22;13.02;;;9.50;;
73168;SDS011;61379;59.732;30.468;2023-04-24T02:28:49;13.63;;;8.23;;
73168;SDS011;61379;59.732;30.468;2023-04-24T02:31:17;9.35;;;8.10;;
73168;SDS011;61379;59.732;30.468;2023-04-24T02:33:44;8.98;;;8.07;;
73168;SDS011;61379;59.732;30.468;2023-04-24T02:36:10;9.75;;;8.70;;
73168;SDS011;61379;59.732;30.468;2023-04-24T02:38:38;10.88;;;8.63;;
73168;SDS011;61379;59.732;30.468;2023-04-24T02:41:05;11.98;;;8.63;;
73168;SDS011;61379;59.732;30.468;2023-04-24T02:43:32;9.43;;;8.45;;
73168;SDS011;61379;59.732;30.468;2023-04-24T02:45:59;9.93;;;8.82;;
73168;SDS011;61379;59.732;30.468;2023-04-24T02:48:27;9.68;;;8.68;;
73168;SDS011;61379;59.732;30.468;2023-04-24T02:50:54;9.50;;;7.82;;
73168;SDS011;61379;59.732;30.468;2023-04-24T02:53:20;10.43;;;8.45;;
73168;SDS011;61379;59.732;30.468;2023-04-24T02:55:48;8.35;;;7.25;;
73168;SDS011;61379;59.732;30.468;2023-04-24T02:58:15;9.18;;;6.97;;
73168;SDS011;61379;59.732;30.468;2023-04-24T03:00:42;9.00;;;8.20;;
73168;SDS011;61379;59.732;30.468;2023-04-24T03:03:09;9.50;;;7.40;;
73168;SDS011;61379;59.732;30.468;2023-04-24T03:05:38;11.05;;;7.68;;
73168;SDS011;61379;59.732;30.468;2023-04-24T03:08:04;10.20;;;6.90;;
73168;SDS011;61379;59.732;30.468;2023-04-24T03:10:31;8.70;;;7.80;;
73168;SDS011;61379;59.732;30.468;2023-04-24T03:12:58;10.80;;;8.73;;
73168;SDS011;61379;59.732;30.468;2023-04-24T03:15:25;9.43;;;7.32;;
73168;SDS011;61379;59.732;30.468;2023-04-24T03:17:52;9.60;;;7.63;;
73168;SDS011;61379;59.732;30.468;2023-04-24T03:20:19;8.38;;;7.57;;
73168;SDS011;61379;59.732;30.468;2023-04-24T03:22:47;13.35;;;7.40;;
73168;SDS011;61379;59.732;30.468;2023-04-24T03:25:14;7.95;;;7.15;;
73168;SDS011;61379;59.732;30.468;2023-04-24T03:27:41;8.57;;;7.75;;
73168;SDS011;61379;59.732;30.468;2023-04-24T03:30:08;8.30;;;7.40;;
73168;SDS011;61379;59.732;30.468;2023-04-24T03:32:34;9.18;;;7.10;;
73168;SDS011;61379;59.732;30.468;2023-04-24T03:35:01;8.73;;;7.82;;
73168;SDS011;61379;59.732;30.468;2023-04-24T03:37:29;10.32;;;7.70;;
73168;SDS011;61379;59.732;30.468;2023-04-24T03:39:57;8.07;;;7.07;;
73168;SDS011;61379;59.732;30.468;2023-04-24T03:42:24;8.80;;;7.60;;
73168;SDS011;61379;59.732;30.468;2023-04-24T03:44:51;8.88;;;7.20;;
73168;SDS011;61379;59.732;30.468;2023-04-24T03:47:18;10.98;;;7.55;;
73168;SDS011;61379;59.732;30.468;2023-04-24T03:49:45;7.35;;;6.65;;
73168;SDS011;61379;59.732;30.468;2023-04-24T03:52:11;8.73;;;6.32;;
73168;SDS011;61379;59.732;30.468;2023-04-24T03:54:38;8.38;;;7.25;;
73168;SDS011;61379;59.732;30.468;2023-04-24T03:57:06;7.30;;;6.60;;
73168;SDS011;61379;59.732;30.468;2023-04-24T03:59:33;8.57;;;7.63;;
73168;SDS011;61379;59.732;30.468;2023-04-24T04:02:00;9.20;;;7.22;;
73168;SDS011;61379;59.732;30.468;2023-04-24T04:04:26;8.65;;;7.70;;
73168;SDS011;61379;59.732;30.468;2023-04-24T04:06:53;8.75;;;7.35;;
73168;SDS011;61379;59.732;30.468;2023-04-24T04:09:20;10.13;;;6.85;;
73168;SDS011;61379;59.732;30.468;2023-04-24T04:11:47;8.50;;;7.60;;
73168;SDS011;61379;59.732;30.468;2023-04-24T04:14:15;7.18;;;6.53;;
73168;SDS011;61379;59.732;30.468;2023-04-24T04:16:41;7.43;;;6.75;;
73168;SDS011;61379;59.732;30.468;2023-04-24T04:19:08;9.43;;;6.55;;
73168;SDS011;61379;59.732;30.468;2023-04-24T04:21:35;11.07;;;7.65;;
73168;SDS011;61379;59.732;30.468;2023-04-24T04:24:02;8.63;;;7.68;;
73168;SDS011;61379;59.732;30.468;2023-04-24T04:26:30;8.30;;;7.03;;
73168;SDS011;61379;59.732;30.468;2023-04-24T04:28:57;10.35;;;7.22;;
73168;SDS011;61379;59.732;30.468;2023-04-24T04:31:27;7.28;;;6.53;;
73168;SDS011;61379;59.732;30.468;2023-04-24T04:33:54;7.55;;;6.95;;
73168;SDS011;61379;59.732;30.468;2023-04-24T04:36:20;9.18;;;7.53;;
73168;SDS011;61379;59.732;30.468;2023-04-24T04:38:49;10.48;;;7.13;;
73168;SDS011;61379;59.732;30.468;2023-04-24T04:41:15;7.55;;;6.85;;
73168;SDS011;61379;59.732;30.468;2023-04-24T04:43:43;11.80;;;8.63;;
73168;SDS011;61379;59.732;30.468;2023-04-24T04:46:10;9.05;;;7.53;;
73168;SDS011;61379;59.732;30.468;2023-04-24T04:48:38;8.77;;;7.10;;
73168;SDS011;61379;59.732;30.468;2023-04-24T04:51:05;8.40;;;7.20;;
73168;SDS011;61379;59.732;30.468;2023-04-24T04:53:32;10.20;;;6.53;;
73168;SDS011;61379;59.732;30.468;2023-04-24T04:55:59;8.60;;;7.07;;
73168;SDS011;61379;59.732;30.468;2023-04-24T04:58:26;7.32;;;6.60;;
73168;SDS011;61379;59.732;30.468;2023-04-24T05:00:52;9.38;;;7.65;;
73168;SDS011;61379;59.732;30.468;2023-04-24T05:03:19;7.45;;;6.70;;
73168;SDS011;61379;59.732;30.468;2023-04-24T05:05:47;8.68;;;6.57;;
73168;SDS011;61379;59.732;30.468;2023-04-24T05:08:14;7.22;;;6.60;;
73168;SDS011;61379;59.732;30.468;2023-04-24T05:10:41;8.57;;;7.30;;
73168;SDS011;61379;59.732;30.468;2023-04-24T05:13:08;9.40;;;6.28;;
73168;SDS011;61379;59.732;30.468;2023-04-24T05:15:34;12.45;;;6.93;;
73168;SDS011;61379;59.732;30.468;2023-04-24T05:18:01;9.30;;;8.27;;
73168;SDS011;61379;59.732;30.468;2023-04-24T05:20:28;7.63;;;6.40;;
73168;SDS011;61379;59.732;30.468;2023-04-24T05:22:57;7.95;;;7.30;;
73168;SDS011;61379;59.732;30.468;2023-04-24T05:25:23;8.30;;;7.35;;
73168;SDS011;61379;59.732;30.468;2023-04-24T05:27:50;8.93;;;8.13;;
73168;SDS011;61379;59.732;30.468;2023-04-24T05:30:18;9.73;;;8.07;;
73168;SDS011;61379;59.732;30.468;2023-04-24T05:32:45;8.07;;;7.25;;
73168;SDS011;61379;59.732;30.468;2023-04-24T05:35:12;8.95;;;7.32;;
73168;SDS011;61379;59.732;30.468;2023-04-24T05:37:38;8.65;;;7.43;;
73168;SDS011;61379;59.732;30.468;2023-04-24T05:40:07;9.25;;;7.25;;
73168;SDS011;61379;59.732;30.468;2023-04-24T05:42:34;8.82;;;6.50;;
73168;SDS011;61379;59.732;30.468;2023-04-24T05:45:01;8.52;;;6.32;;
73168;SDS011;61379;59.732;30.468;2023-04-24T05:47:32;7.78;;;7.05;;
73168;SDS011;61379;59.732;30.468;2023-04-24T05:49:59;7.68;;;6.88;;
73168;SDS011;61379;59.732;30.468;2023-04-24T05:52:26;7.95;;;7.20;;
73168;SDS011;61379;59.732;30.468;2023-04-24T05:54:52;8.02;;;7.22;;
73168;SDS011;61379;59.732;30.468;2023-04-24T05:57:20;7.13;;;6.40;;
73168;SDS011;61379;59.732;30.468;2023-04-24T05:59:47;8.95;;;7.10;;
73168;SDS011;61379;59.732;30.468;2023-04-24T06:02:14;10.25;;;6.93;;
73168;SDS011;61379;59.732;30.468;2023-04-24T06:04:41;8.63;;;6.18;;
73168;SDS011;61379;59.732;30.468;2023-04-24T06:07:07;7.07;;;6.38;;
73168;SDS011;61379;59.732;30.468;2023-04-24T06:09:34;6.65;;;5.95;;
73168;SDS011;61379;59.732;30.468;2023-04-24T06:12:01;8.65;;;7.80;;
73168;SDS011;61379;59.732;30.468;2023-04-24T06:14:30;6.78;;;6.22;;
73168;SDS011;61379;59.732;30.468;2023-04-24T06:16:56;10.23;;;7.43;;
73168;SDS011;61379;59.732;30.468;2023-04-24T06:19:23;9.88;;;7.28;;
73168;SDS011;61379;59.732;30.468;2023-04-24T06:21:50;6.57;;;5.95;;
73168;SDS011;61379;59.732;30.468;2023-04-24T06:24:17;7.00;;;6.43;;
73168;SDS011;61379;59.732;30.468;2023-04-24T06:26:43;8.45;;;6.68;;
73168;SDS011;61379;59.732;30.468;2023-04-24T06:29:10;6.88;;;6.28;;
73168;SDS011;61379;59.732;30.468;2023-04-24T06:31:38;8.38;;;6.13;;
73168;SDS011;61379;59.732;30.468;2023-04-24T06:34:05;6.10;;;5.50;;
73168;SDS011;61379;59.732;30.468;2023-04-24T06:36:32;8.57;;;6.72;;
73168;SDS011;61379;59.732;30.468;2023-04-24T06:39:00;10.35;;;6.57;;
73168;SDS011;61379;59.732;30.468;2023-04-24T06:41:27;12.80;;;6.82;;
73168;SDS011;61379;59.732;30.468;2023-04-24T06:43:54;10.85;;;7.47;;
73168;SDS011;61379;59.732;30.468;2023-04-24T06:46:21;8.75;;;6.65;;
73168;SDS011;61379;59.732;30.468;2023-04-24T06:48:52;6.80;;;6.10;;
73168;SDS011;61379;59.732;30.468;2023-04-24T06:51:21;9.98;;;6.97;;
73168;SDS011;61379;59.732;30.468;2023-04-24T06:53:48;7.30;;;6.60;;
73168;SDS011;61379;59.732;30.468;2023-04-24T06:56:15;8.13;;;7.30;;
73168;SDS011;61379;59.732;30.468;2023-04-24T06:58:42;8.15;;;6.43;;
73168;SDS011;61379;59.732;30.468;2023-04-24T07:01:09;7.18;;;6.50;;
73168;SDS011;61379;59.732;30.468;2023-04-24T07:03:36;7.38;;;6.68;;
73168;SDS011;61379;59.732;30.468;2023-04-24T07:06:04;7.20;;;6.50;;
73168;SDS011;61379;59.732;30.468;2023-04-24T07:08:31;9.57;;;6.93;;
73168;SDS011;61379;59.732;30.468;2023-04-24T07:10:58;7.85;;;6.28;;
73168;SDS011;61379;59.732;30.468;2023-04-24T07:13:26;10.68;;;6.97;;
73168;SDS011;61379;59.732;30.468;2023-04-24T07:15:53;7.35;;;6.65;;
73168;SDS011;61379;59.732;30.468;2023-04-24T07:18:21;8.85;;;6.47;;
73168;SDS011;61379;59.732;30.468;2023-04-24T07:20:48;8.80;;;6.88;;
73168;SDS011;61379;59.732;30.468;2023-04-24T07:23:17;6.53;;;5.88;;
73168;SDS011;61379;59.732;30.468;2023-04-24T07:25:43;11.38;;;6.88;;
73168;SDS011;61379;59.732;30.468;2023-04-24T07:28:10;12.10;;;6.80;;
73168;SDS011;61379;59.732;30.468;2023-04-24T07:30:37;7.40;;;6.72;;
73168;SDS011;61379;59.732;30.468;2023-04-24T07:33:04;10.32;;;6.78;;
73168;SDS011;61379;59.732;30.468;2023-04-24T07:35:32;7.93;;;7.20;;
73168;SDS011;61379;59.732;30.468;2023-04-24T07:37:59;10.25;;;7.00;;
73168;SDS011;61379;59.732;30.468;2023-04-24T07:40:27;11.68;;;6.88;;
73168;SDS011;61379;59.732;30.468;2023-04-24T07:42:54;10.15;;;7.35;;
73168;SDS011;61379;59.732;30.468;2023-04-24T07:45:21;12.27;;;7.80;;
73168;SDS011;61379;59.732;30.468;2023-04-24T07:47:48;10.15;;;7.22;;
73168;SDS011;61379;59.732;30.468;2023-04-24T07:50:15;9.70;;;7.40;;
73168;SDS011;61379;59.732;30.468;2023-04-24T07:52:41;15.55;;;6.53;;
73168;SDS011;61379;59.732;30.468;2023-04-24T07:55:08;11.90;;;6.88;;
73168;SDS011;61379;59.732;30.468;2023-04-24T07:57:36;8.85;;;6.50;;
73168;SDS011;61379;59.732;30.468;2023-04-24T08:00:03;6.82;;;6.10;;
73168;SDS011;61379;59.732;30.468;2023-04-24T08:02:32;10.50;;;6.60;;
73168;SDS011;61379;59.732;30.468;2023-04-24T08:04:58;7.00;;;6.20;;
73168;SDS011;61379;59.732;30.468;2023-04-24T08:07:25;26.55;;;7.47;;
73168;SDS011;61379;59.732;30.468;2023-04-24T08:09:52;11.80;;;7.07;;
73168;SDS011;61379;59.732;30.468;2023-04-24T08:12:19;10.30;;;7.28;;
73168;SDS011;61379;59.732;30.468;2023-04-24T08:14:47;7.40;;;6.70;;
73168;SDS011;61379;59.732;30.468;2023-04-24T08:17:14;11.52;;;6.40;;
73168;SDS011;61379;59.732;30.468;2023-04-24T08:19:40;13.18;;;7.28;;
73168;SDS011;61379;59.732;30.468;2023-04-24T08:22:12;17.42;;;7.22;;
73168;SDS011;61379;59.732;30.468;2023-04-24T08:24:39;34.22;;;9.25;;
73168;SDS011;61379;59.732;30.468;2023-04-24T08:27:06;15.40;;;8.05;;
73168;SDS011;61379;59.732;30.468;2023-04-24T08:29:33;12.32;;;7.88;;
73168;SDS011;61379;59.732;30.468;2023-04-24T08:32:01;9.48;;;8.60;;
73168;SDS011;61379;59.732;30.468;2023-04-24T08:34:27;12.43;;;7.88;;
73168;SDS011;61379;59.732;30.468;2023-04-24T08:36:54;26.52;;;8.75;;
73168;SDS011;61379;59.732;30.468;2023-04-24T08:39:21;15.93;;;8.30;;
73168;SDS011;61379;59.732;30.468;2023-04-24T08:41:48;8.07;;;7.15;;
73168;SDS011;61379;59.732;30.468;2023-04-24T08:44:14;7.68;;;6.97;;
73168;SDS011;61379;59.732;30.468;2023-04-24T08:46:42;8.40;;;7.45;;
73168;SDS011;61379;59.732;30.468;2023-04-24T08:49:10;12.20;;;7.03;;
73168;SDS011;61379;59.732;30.468;2023-04-24T08:51:37;11.10;;;7.57;;
73168;SDS011;61379;59.732;30.468;2023-04-24T08:54:04;16.75;;;8.15;;
73168;SDS011;61379;59.732;30.468;2023-04-24T08:56:32;11.75;;;8.10;;
73168;SDS011;61379;59.732;30.468;2023-04-24T08:58:59;13.70;;;8.10;;
73168;SDS011;61379;59.732;30.468;2023-04-24T09:01:26;8.20;;;7.47;;
73168;SDS011;61379;59.732;30.468;2023-04-24T09:03:54;9.45;;;8.27;;
73168;SDS011;61379;59.732;30.468;2023-04-24T09:06:24;10.10;;;8.85;;
73168;SDS011;61379;59.732;30.468;2023-04-24T09:08:52;10.52;;;9.27;;
73168;SDS011;61379;59.732;30.468;2023-04-24T09:13:49;20.60;;;8.00;;
73168;SDS011;61379;59.732;30.468;2023-04-24T09:16:16;8.48;;;6.45;;
73168;SDS011;61379;59.732;30.468;2023-04-24T09:18:43;8.55;;;7.40;;
73168;SDS011;61379;59.732;30.468;2023-04-24T09:21:10;19.52;;;8.65;;
73168;SDS011;61379;59.732;30.468;2023-04-24T09:23:38;13.52;;;9.93;;
73168;SDS011;61379;59.732;30.468;2023-04-24T09:26:05;14.77;;;8.23;;
73168;SDS011;61379;59.732;30.468;2023-04-24T09:28:32;13.00;;;7.90;;
73168;SDS011;61379;59.732;30.468;2023-04-24T09:31:06;8.70;;;7.82;;
73168;SDS011;61379;59.732;30.468;2023-04-24T09:33:33;10.60;;;8.93;;
73168;SDS011;61379;59.732;30.468;2023-04-24T09:36:00;8.85;;;8.10;;
73168;SDS011;61379;59.732;30.468;2023-04-24T09:38:30;8.57;;;7.82;;
73168;SDS011;61379;59.732;30.468;2023-04-24T09:41:00;10.38;;;9.48;;
73168;SDS011;61379;59.732;30.468;2023-04-24T09:43:28;8.13;;;7.40;;
73168;SDS011;61379;59.732;30.468;2023-04-24T09:45:55;7.63;;;6.85;;
73168;SDS011;61379;59.732;30.468;2023-04-24T09:48:29;9.60;;;7.25;;
73168;SDS011;61379;59.732;30.468;2023-04-24T09:50:56;7.38;;;6.50;;
73168;SDS011;61379;59.732;30.468;2023-04-24T09:53:23;13.65;;;7.88;;
73168;SDS011;61379;59.732;30.468;2023-04-24T09:55:50;10.07;;;7.22;;
73168;SDS011;61379;59.732;30.468;2023-04-24T09:58:19;7.57;;;7.00;;
73168;SDS011;61379;59.732;30.468;2023-04-24T10:00:53;6.95;;;6.43;;
73168;SDS011;61379;59.732;30.468;2023-04-24T10:03:19;12.05;;;7.28;;
73168;SDS011;61379;59.732;30.468;2023-04-24T10:05:46;10.05;;;7.28;;
73168;SDS011;61379;59.732;30.468;2023-04-24T10:08:13;9.68;;;8.93;;
73168;SDS011;61379;59.732;30.468;2023-04-24T10:10:41;8.02;;;7.20;;
73168;SDS011;61379;59.732;30.468;2023-04-24T10:13:08;8.73;;;7.95;;
73168;SDS011;61379;59.732;30.468;2023-04-24T10:15:37;8.35;;;7.47;;
73168;SDS011;61379;59.732;30.468;2023-04-24T10:18:04;8.02;;;7.25;;
73168;SDS011;61379;59.732;30.468;2023-04-24T10:20:32;8.82;;;8.05;;
73168;SDS011;61379;59.732;30.468;2023-04-24T10:22:59;7.30;;;6.80;;
73168;SDS011;61379;59.732;30.468;2023-04-24T10:25:27;7.68;;;7.10;;
73168;SDS011;61379;59.732;30.468;2023-04-24T10:27:54;8.07;;;7.40;;
73168;SDS011;61379;59.732;30.468;2023-04-24T10:30:22;16.60;;;9.23;;
73168;SDS011;61379;59.732;30.468;2023-04-24T10:32:51;8.50;;;7.65;;
73168;SDS011;61379;59.732;30.468;2023-04-24T10:35:17;8.18;;;7.60;;
73168;SDS011;61379;59.732;30.468;2023-04-24T10:37:48;11.25;;;9.63;;
73168;SDS011;61379;59.732;30.468;2023-04-24T10:40:17;23.48;;;9.43;;
73168;SDS011;61379;59.732;30.468;2023-04-24T10:42:47;9.40;;;8.55;;
73168;SDS011;61379;59.732;30.468;2023-04-24T10:45:17;8.65;;;7.78;;
73168;SDS011;61379;59.732;30.468;2023-04-24T10:47:51;8.88;;;8.00;;
73168;SDS011;61379;59.732;30.468;2023-04-24T10:50:18;10.90;;;10.10;;
73168;SDS011;61379;59.732;30.468;2023-04-24T10:52:45;9.80;;;9.00;;
73168;SDS011;61379;59.732;30.468;2023-04-24T10:55:12;9.38;;;8.70;;
73168;SDS011;61379;59.732;30.468;2023-04-24T10:57:40;8.73;;;8.13;;
73168;SDS011;61379;59.732;30.468;2023-04-24T11:00:27;8.18;;;7.50;;
73168;SDS011;61379;59.732;30.468;2023-04-24T11:02:55;8.25;;;7.55;;
73168;SDS011;61379;59.732;30.468;2023-04-24T11:05:23;8.70;;;8.00;;
73168;SDS011;61379;59.732;30.468;2023-04-24T11:08:13;11.65;;;7.63;;
73168;SDS011;61379;59.732;30.468;2023-04-24T11:10:43;8.55;;;7.65;;
73168;SDS011;61379;59.732;30.468;2023-04-24T11:13:10;14.00;;;7.60;;
73168;SDS011;61379;59.732;30.468;2023-04-24T11:15:37;9.23;;;8.43;;
73168;SDS011;61379;59.732;30.468;2023-04-24T11:18:05;9.35;;;7.50;;
73168;SDS011;61379;59.732;30.468;2023-04-24T11:20:31;10.20;;;8.43;;
73168;SDS011;61379;59.732;30.468;2023-04-24T11:23:00;8.70;;;8.00;;
73168;SDS011;61379;59.732;30.468;2023-04-24T11:25:30;8.75;;;7.68;;
73168;SDS011;61379;59.732;30.468;2023-04-24T11:28:02;9.55;;;7.90;;
73168;SDS011;61379;59.732;30.468;2023-04-24T11:30:29;8.82;;;8.00;;
73168;SDS011;61379;59.732;30.468;2023-04-24T11:32:59;8.02;;;7.32;;
73168;SDS011;61379;59.732;30.468;2023-04-24T11:35:29;7.60;;;7.00;;
73168;SDS011;61379;59.732;30.468;2023-04-24T11:37:56;10.40;;;7.22;;
73168;SDS011;61379;59.732;30.468;2023-04-24T11:40:24;10.85;;;8.18;;
73168;SDS011;61379;59.732;30.468;2023-04-24T11:42:51;9.50;;;7.68;;
73168;SDS011;61379;59.732;30.468;2023-04-24T11:45:21;8.30;;;7.50;;
73168;SDS011;61379;59.732;30.468;2023-04-24T11:47:48;9.90;;;9.00;;
73168;SDS011;61379;59.732;30.468;2023-04-24T11:50:15;7.85;;;7.10;;
73168;SDS011;61379;59.732;30.468;2023-04-24T11:52:44;8.38;;;6.97;;
73168;SDS011;61379;59.732;30.468;2023-04-24T11:55:22;9.43;;;8.63;;
73168;SDS011;61379;59.732;30.468;2023-04-24T11:57:50;8.95;;;8.15;;
73168;SDS011;61379;59.732;30.468;2023-04-24T12:00:17;8.85;;;8.00;;
73168;SDS011;61379;59.732;30.468;2023-04-24T12:02:44;8.73;;;8.00;;
73168;SDS011;61379;59.732;30.468;2023-04-24T12:05:18;8.90;;;8.15;;
73168;SDS011;61379;59.732;30.468;2023-04-24T12:07:46;10.68;;;6.97;;
73168;SDS011;61379;59.732;30.468;2023-04-24T12:10:13;9.43;;;8.25;;
73168;SDS011;61379;59.732;30.468;2023-04-24T12:12:40;8.48;;;7.78;;
73168;SDS011;61379;59.732;30.468;2023-04-24T12:15:08;8.70;;;8.00;;
73168;SDS011;61379;59.732;30.468;2023-04-24T12:17:35;8.05;;;7.22;;
73168;SDS011;61379;59.732;30.468;2023-04-24T12:20:03;7.97;;;7.28;;
73168;SDS011;61379;59.732;30.468;2023-04-24T12:22:47;9.52;;;7.97;;
73168;SDS011;61379;59.732;30.468;2023-04-24T12:25:14;9.95;;;7.40;;
73168;SDS011;61379;59.732;30.468;2023-04-24T12:27:41;8.45;;;7.30;;
73168;SDS011;61379;59.732;30.468;2023-04-24T12:30:10;7.70;;;7.10;;
73168;SDS011;61379;59.732;30.468;2023-04-24T12:32:40;8.13;;;7.43;;
73168;SDS011;61379;59.732;30.468;2023-04-24T12:35:07;7.22;;;6.72;;
73168;SDS011;61379;59.732;30.468;2023-04-24T12:37:34;10.02;;;7.07;;
73168;SDS011;61379;59.732;30.468;2023-04-24T12:40:04;9.90;;;7.30;;
73168;SDS011;61379;59.732;30.468;2023-04-24T12:42:32;9.88;;;7.47;;
73168;SDS011;61379;59.732;30.468;2023-04-24T12:44:59;9.82;;;7.43;;
73168;SDS011;61379;59.732;30.468;2023-04-24T12:47:30;8.98;;;8.25;;
73168;SDS011;61379;59.732;30.468;2023-04-24T12:49:57;9.15;;;8.35;;
73168;SDS011;61379;59.732;30.468;2023-04-24T12:52:24;8.88;;;7.97;;
73168;SDS011;61379;59.732;30.468;2023-04-24T12:54:52;8.73;;;8.02;;
73168;SDS011;61379;59.732;30.468;2023-04-24T12:57:21;11.05;;;8.18;;
73168;SDS011;61379;59.732;30.468;2023-04-24T12:59:48;11.57;;;8.45;;
73168;SDS011;61379;59.732;30.468;2023-04-24T13:02:14;11.18;;;8.68;;
73168;SDS011;61379;59.732;30.468;2023-04-24T13:04:43;10.32;;;9.48;;
73168;SDS011;61379;59.732;30.468;2023-04-24T13:07:10;9.95;;;9.15;;
73168;SDS011;61379;59.732;30.468;2023-04-24T13:09:36;9.55;;;8.68;;
73168;SDS011;61379;59.732;30.468;2023-04-24T13:12:03;9.32;;;8.25;;
73168;SDS011;61379;59.732;30.468;2023-04-24T13:14:32;9.45;;;8.70;;
73168;SDS011;61379;59.732;30.468;2023-04-24T13:16:59;10.13;;;9.32;;
73168;SDS011;61379;59.732;30.468;2023-04-24T13:19:26;16.77;;;9.38;;
73168;SDS011;61379;59.732;30.468;2023-04-24T13:21:54;9.73;;;8.93;;
73168;SDS011;61379;59.732;30.468;2023-04-24T13:24:21;9.07;;;8.23;;
73168;SDS011;61379;59.732;30.468;2023-04-24T13:26:49;8.70;;;8.00;;
73168;SDS011;61379;59.732;30.468;2023-04-24T13:29:16;8.50;;;7.70;;
73168;SDS011;61379;59.732;30.468;2023-04-24T13:31:45;9.20;;;8.38;;
73168;SDS011;61379;59.732;30.468;2023-04-24T13:34:12;9.43;;;7.95;;
73168;SDS011;61379;59.732;30.468;2023-04-24T13:36:38;11.85;;;9.38;;
73168;SDS011;61379;59.732;30.468;2023-04-24T13:39:05;10.23;;;8.90;;
73168;SDS011;61379;59.732;30.468;2023-04-24T13:41:32;14.60;;;10.13;;
73168;SDS011;61379;59.732;30.468;2023-04-24T13:43:59;21.73;;;9.52;;
73168;SDS011;61379;59.732;30.468;2023-04-24T13:46:26;15.35;;;9.45;;
73168;SDS011;61379;59.732;30.468;2023-04-24T13:48:54;13.93;;;9.43;;
73168;SDS011;61379;59.732;30.468;2023-04-24T13:51:21;10.48;;;8.32;;
73168;SDS011;61379;59.732;30.468;2023-04-24T13:53:47;12.52;;;8.75;;
73168;SDS011;61379;59.732;30.468;2023-04-24T13:56:14;15.02;;;9.02;;
73168;SDS011;61379;59.732;30.468;2023-04-24T13:58:41;17.42;;;10.18;;
73168;SDS011;61379;59.732;30.468;2023-04-24T14:01:08;22.15;;;10.10;;
73168;SDS011;61379;59.732;30.468;2023-04-24T14:03:35;14.52;;;9.77;;
73168;SDS011;61379;59.732;30.468;2023-04-24T14:06:04;15.10;;;9.25;;
73168;SDS011;61379;59.732;30.468;2023-04-24T14:10:58;10.60;;;9.52;;
73168;SDS011;61379;59.732;30.468;2023-04-24T14:13:25;10.25;;;9.15;;
73168;SDS011;61379;59.732;30.468;2023-04-24T14:15:52;17.63;;;9.52;;
73168;SDS011;61379;59.732;30.468;2023-04-24T14:18:19;11.40;;;9.50;;
73168;SDS011;61379;59.732;30.468;2023-04-24T14:20:46;15.27;;;10.10;;
73168;SDS011;61379;59.732;30.468;2023-04-24T14:23:14;17.88;;;10.10;;
73168;SDS011;61379;59.732;30.468;2023-04-24T14:25:41;13.82;;;10.20;;
73168;SDS011;61379;59.732;30.468;2023-04-24T14:28:08;15.27;;;9.88;;
73168;SDS011;61379;59.732;30.468;2023-04-24T14:30:34;12.80;;;10.00;;
73168;SDS011;61379;59.732;30.468;2023-04-24T14:33:02;11.18;;;9.50;;
73168;SDS011;61379;59.732;30.468;2023-04-24T14:35:29;14.60;;;9.68;;